Latest Weather Observations for Hunters Hill

IDV60801

Issued at 8:12 am EST Wednesday 12 August 2020 (issued every 10 minutes, with the page automatically refreshed every 10 minutes)

About weather observations | Map of weather stations | Latest weather observations for VIC | Other Formats
Station Details ID: 082139 Name: HUNTERS HILL Lat: -36.21 Lon: 147.54 Height: 981.0 m
Data from the previous 72 hours. | See also: Recent months at Hunters Hill
Date/Time
EST
Temp
°C
App
Temp
°C
Dew
Point
°C
Rel
Hum
%
Delta-T
°C
Wind Press
QNH
hPa
Press
MSL
hPa
Rain since
9am
mm
Dir  Spd
km/h
Gust
km/h
Spd
kts
Gust
kts
12/08:00am 5.0 2.6 4.1 94 0.4 NNE 6 9 3 5 - - 0.0
12/07:30am 4.6 2.5 3.9 95 0.3 N 4 7 2 4 - - 0.0
12/07:00am 4.6 2.1 3.9 95 0.3 NE 6 11 3 6 - - 0.0
12/06:30am 4.0 1.8 3.4 96 0.3 NE 4 7 2 4 - - 0.0
12/06:00am 4.3 1.8 3.6 95 0.3 NE 6 7 3 4 - - 0.0
12/05:30am 4.0 1.8 3.3 95 0.3 NE 4 6 2 3 - - 0.0
12/05:00am 3.9 1.7 3.2 95 0.3 NE 4 6 2 3 - - 0.0
12/04:30am 4.1 1.9 3.4 95 0.3 NE 4 6 2 3 - - 0.0
12/04:00am 4.0 1.8 3.6 97 0.2 NE 4 9 2 5 - - 0.0
12/03:30am 3.9 1.7 3.3 96 0.3 NE 4 9 2 5 - - 0.0
12/03:00am 3.5 1.6 2.8 95 0.3 NNE 2 4 1 2 - - 0.0
12/02:30am 4.0 2.1 3.1 94 0.4 NNE 2 6 1 3 - - 0.0
12/02:00am 4.5 2.3 3.5 93 0.4 NE 4 11 2 6 - - 0.0
12/01:30am 3.9 2.0 2.6 91 0.6 NE 2 6 1 3 - - 0.0
12/01:00am 4.5 1.9 3.0 90 0.7 NE 6 7 3 4 - - 0.0
12/12:30am 4.5 2.2 2.5 87 0.9 NNE 4 6 2 3 - - 0.0
12/12:00am 4.8 1.9 2.5 85 1.0 NNE 7 11 4 6 - - 0.0
 
Date/Time
EST
Temp
°C
App
Temp
°C
Dew
Point
°C
Rel
Hum
%
Delta-T
°C
Wind Press
QNH
hPa
Press
MSL
hPa
Rain since
9am
mm
Dir  Spd
km/h
Gust
km/h
Spd
kts
Gust
kts
11/11:30pm 4.8 2.0 2.2 83 1.1 NNE 6 9 3 5 - - 0.0
11/11:00pm 5.0 2.2 2.2 82 1.2 N 6 13 3 7 - - 0.0
11/10:30pm 4.8 2.4 2.0 82 1.2 NNE 4 6 2 3 - - 0.0
11/10:00pm 4.8 1.8 2.3 84 1.1 N 7 11 4 6 - - 0.0
11/09:30pm 4.8 2.1 3.5 91 0.6 NNE 7 9 4 5 - - 0.0
11/09:00pm 4.5 2.3 3.3 92 0.5 NNW 4 7 2 4 - - 0.0
11/08:30pm 4.8 2.6 3.3 90 0.7 NNW 4 6 2 3 - - 0.0
11/08:00pm 4.7 2.9 3.4 91 0.6 NNW 2 6 1 3 - - 0.0
11/07:30pm 4.6 2.7 3.1 90 0.7 NNW 2 4 1 2 - - 0.0
11/07:00pm 4.7 2.5 3.4 91 0.6 NNW 4 6 2 3 - - 0.0
11/06:30pm 4.5 2.0 3.5 93 0.4 NNW 6 7 3 4 - - 0.0
11/06:00pm 4.6 2.4 3.3 91 0.6 WNW 4 6 2 3 - - 0.0
11/05:30pm 4.9 3.1 3.2 89 0.7 W 2 4 1 2 - - 0.0
11/05:00pm 5.4 3.5 2.9 84 1.1 W 2 4 1 2 - - 0.0
11/04:30pm 6.3 3.8 3.8 84 1.1 W 6 13 3 7 - - 0.0
11/04:00pm 6.8 4.2 3.4 79 1.5 W 6 9 3 5 - - 0.0
11/03:30pm 8.1 6.0 3.8 74 2.0 WNW 4 7 2 4 - - 0.0
11/03:00pm 7.6 5.5 4.0 78 1.7 WNW 4 6 2 3 - - 0.0
11/02:30pm 7.9 5.1 3.2 72 2.1 WNW 7 15 4 8 - - 0.0
11/02:00pm 8.5 5.7 2.3 65 2.8 N 6 9 3 5 - - 0.0
11/01:30pm 8.8 6.6 3.6 70 2.4 NNE 4 9 2 5 - - 0.0
11/01:00pm 7.4 4.7 2.9 73 2.0 NW 6 13 3 7 - - 0.0
11/12:30pm 8.0 6.2 3.5 73 2.0 NNE 2 6 1 3 - - 0.0
11/12:00pm 8.1 5.5 3.2 71 2.2 NNE 6 9 3 5 - - 0.0
11/11:30am 7.5 5.2 3.0 73 2.0 NNW 4 7 2 4 - - 0.0
11/11:00am 6.9 4.9 2.2 72 2.1 NW 2 9 1 5 - - 0.0
11/10:30am 5.6 3.2 2.3 79 1.4 WNW 4 6 2 3 - - 0.0
11/10:00am 4.8 2.4 2.3 84 1.1 WNW 4 6 2 3 - - 0.0
11/09:30am 5.5 2.7 2.0 78 1.5 WNW 6 9 3 5 - - 0.0
11/09:00am 5.0 2.9 1.8 80 1.4 W 2 6 1 3 - - 0.0
11/08:30am 3.5 1.7 1.5 87 0.8 CALM 0 0 0 0 - - 0.0
11/08:00am 4.2 2.6 2.7 90 0.6 CALM 0 0 0 0 - - 0.0
11/07:30am 3.1 1.4 1.6 90 0.6 CALM 0 2 0 1 - - 0.0
11/07:00am 3.1 0.6 1.6 90 0.6 WSW 4 6 2 3 - - 0.0
11/06:30am 2.7 -0.4 1.5 92 0.5 W 7 11 4 6 - - 0.0
11/06:00am 2.9 -0.1 1.7 92 0.5 WSW 7 15 4 8 - - 0.0
11/05:30am 2.8 -0.3 1.3 90 0.6 WSW 7 17 4 9 - - 0.0
11/05:00am 3.0 0.1 1.2 88 0.7 W 6 9 3 5 - - 0.0
11/04:30am 3.4 1.2 1.3 86 0.9 WNW 2 4 1 2 - - 0.0
11/04:00am 3.6 1.9 1.6 87 0.8 CALM 0 0 0 0 - - 0.0
11/03:30am 2.8 1.0 1.5 91 0.5 CALM 0 0 0 0 - - 0.0
11/03:00am 2.7 0.6 1.4 91 0.5 WNW 2 6 1 3 - - 0.0
11/02:30am 3.4 1.3 1.9 90 0.6 WNW 2 6 1 3 - - 0.0
11/02:00am 4.1 2.3 1.5 83 1.1 CALM 0 0 0 0 - - 0.0
11/01:30am 4.8 3.0 1.1 77 1.5 CALM 0 0 0 0 - - 0.0
11/01:00am 4.6 2.0 0.9 77 1.5 WNW 4 7 2 4 - - 0.0
11/12:30am 5.0 2.5 1.3 77 1.6 WNW 4 7 2 4 - - 0.0
11/12:00am 5.1 2.2 1.6 78 1.5 WNW 6 7 3 4 - - 0.0
 
Date/Time
EST
Temp
°C
App
Temp
°C
Dew
Point
°C
Rel
Hum
%
Delta-T
°C
Wind Press
QNH
hPa
Press
MSL
hPa
Rain since
9am
mm
Dir  Spd
km/h
Gust
km/h
Spd
kts
Gust
kts
10/11:30pm 5.3 2.8 1.6 77 1.6 NW 4 6 2 3 - - 0.0
10/11:00pm 6.2 3.7 1.3 71 2.1 NW 4 7 2 4 - - 0.0
10/10:30pm 6.2 3.3 1.7 73 1.9 NW 6 7 3 4 - - 0.0
10/10:00pm 6.3 3.4 1.6 72 2.0 NW 6 7 3 4 - - 0.0
10/09:30pm 6.5 4.4 1.6 71 2.1 WNW 2 6 1 3 - - 0.0
10/09:00pm 6.7 5.0 2.0 72 2.0 CALM 0 0 0 0 - - 0.0
10/08:30pm 6.8 5.2 2.3 73 2.0 CALM 0 0 0 0 - - 0.0
10/08:00pm 6.8 5.1 2.1 72 2.0 CALM 0 0 0 0 - - 0.0
10/07:30pm 6.7 5.1 2.2 73 2.0 CALM 0 0 0 0 - - 0.0
10/07:00pm 6.8 4.3 1.7 70 2.2 WNW 4 6 2 3 - - 0.0
10/06:30pm 6.9 4.5 2.0 71 2.1 WNW 4 7 2 4 - - 0.0
10/06:00pm 6.6 3.8 2.3 74 1.9 W 6 9 3 5 - - 0.0
10/05:30pm 7.0 4.3 2.7 74 1.9 W 6 11 3 6 - - 0.0
10/05:00pm 8.2 5.6 3.1 70 2.3 W 6 11 3 6 - - 0.0
10/04:30pm 9.7 6.9 3.4 65 2.9 WNW 7 15 4 8 - - 0.0
10/04:00pm 10.4 8.1 2.7 59 3.5 WNW 4 7 2 4 - - 0.0
10/03:30pm 11.5 9.3 3.5 58 3.7 W 4 7 2 4 - - 0.0
10/03:00pm 11.2 8.7 1.5 51 4.3 N 4 7 2 4 - - 0.0
10/02:30pm 11.9 9.5 2.4 52 4.4 E 4 6 2 3 - - 0.0
10/02:00pm 11.8 9.7 1.7 50 4.6 E 2 4 1 2 - - 0.0
10/01:30pm 11.0 8.3 0.4 48 4.6 E 4 6 2 3 - - 0.0
10/01:00pm 10.4 7.8 1.2 53 4.1 E 4 7 2 4 - - 0.0
10/12:30pm 10.5 7.8 0.0 48 4.5 SE 4 7 2 4 - - 0.0
10/12:00pm 9.8 6.6 -0.4 49 4.3 ESE 6 13 3 7 - - 0.0
10/11:30am 9.0 5.8 -0.6 51 4.0 ESE 6 11 3 6 - - 0.0
10/11:00am 8.2 4.8 -0.3 55 3.5 SE 7 13 4 7 - - 0.0
10/10:30am 7.7 4.6 0.2 59 3.1 SE 6 11 3 6 - - 0.0
10/10:00am 6.8 3.6 0.7 65 2.6 SE 7 17 4 9 - - 0.0
10/09:30am 5.7 2.4 0.1 67 2.3 SSE 7 13 4 7 - - 0.0
10/09:00am 4.5 1.1 -0.3 71 1.9 SSE 7 17 4 9 - - 0.0
10/08:30am 4.0 0.6 -0.4 73 1.8 SSE 7 22 4 12 - - 0.0
10/08:00am 3.4 -0.4 -0.6 75 1.6 SSE 9 20 5 11 - - 0.0
10/07:30am 2.7 -0.7 -0.6 79 1.3 SSE 7 19 4 10 - - 0.0
10/07:00am 2.9 -0.9 -0.4 79 1.3 SSE 9 20 5 11 - - 0.0
10/06:30am 2.3 -0.9 -0.4 82 1.1 S 6 9 3 5 - - 0.0
10/06:00am 2.4 -0.9 -0.9 79 1.3 S 6 11 3 6 - - 0.0
10/05:30am 3.1 -0.2 -0.9 75 1.6 SSE 6 11 3 6 - - 0.0
10/05:00am 3.6 -0.2 -1.0 72 1.8 SE 9 15 5 8 - - 0.0
10/04:30am 3.8 0.5 -1.2 70 1.9 SE 6 15 3 8 - - 0.0
10/04:00am 3.6 0.3 -1.0 72 1.8 SSE 6 11 3 6 - - 0.0
10/03:30am 4.0 0.7 -1.0 70 2.0 SSE 6 15 3 8 - - 0.0
10/03:00am 4.5 1.1 -0.7 69 2.1 SE 7 15 4 8 - - 0.0
10/02:30am 4.6 0.4 -0.8 68 2.1 ESE 11 19 6 10 - - 0.0
10/02:00am 4.7 0.1 -0.9 67 2.2 ESE 13 26 7 14 - - 0.0
10/01:30am 4.7 -0.3 -1.1 66 2.3 ESE 15 20 8 11 - - 0.0
10/01:00am 4.8 0.2 -1.0 66 2.3 ESE 13 24 7 13 - - 0.0
10/12:30am 5.3 0.0 -0.9 64 2.5 ESE 17 24 9 13 - - 0.0
10/12:00am 5.0 0.8 -1.0 65 2.4 ESE 11 24 6 13 - - 0.0
 
Date/Time
EST
Temp
°C
App
Temp
°C
Dew
Point
°C
Rel
Hum
%
Delta-T
°C
Wind Press
QNH
hPa
Press
MSL
hPa
Rain since
9am
mm
Dir  Spd
km/h
Gust
km/h
Spd
kts
Gust
kts
09/11:30pm 5.2 0.6 -1.0 64 2.5 ESE 13 20 7 11 - - 0.0
09/11:00pm 5.1 0.7 0.1 70 2.0 ESE 13 24 7 13 - - 0.0
09/10:30pm 5.3 1.0 0.9 73 1.8 SE 13 24 7 13 - - 0.0
09/10:00pm 5.3 1.5 1.8 78 1.5 SE 11 22 6 12 - - 0.0
09/09:30pm 5.2 1.7 1.5 77 1.6 SE 9 17 5 9 - - 0.0
09/09:00pm 5.3 1.2 2.0 79 1.4 ESE 13 20 7 11 - - 0.0
09/08:30pm 5.5 1.4 2.3 80 1.4 ESE 13 22 7 12 - - 0.0
09/08:00pm 5.2 1.6 2.9 85 1.0 SE 11 19 6 10 - - 0.0
09/07:30pm 5.2 2.3 2.7 84 1.1 SE 7 15 4 8 - - 0.0
09/07:00pm 5.1 2.4 2.5 83 1.1 SSE 6 13 3 7 - - 0.0
09/06:30pm 5.3 2.5 2.1 80 1.4 S 6 13 3 7 - - 0.0
09/06:00pm 5.6 2.6 1.7 76 1.7 SSE 7 13 4 7 - - 0.0
09/05:30pm 6.0 3.1 1.3 72 2.0 SSE 6 11 3 6 - - 0.0
09/05:00pm 6.8 3.7 1.3 68 2.4 SE 7 20 4 11 - - 0.0
09/04:30pm 7.1 4.1 2.2 71 2.1 SE 7 15 4 8 - - 0.0
09/04:00pm 7.7 4.6 3.7 76 1.8 SSE 9 19 5 10 - - 0.0
09/03:30pm 8.0 5.7 4.6 79 1.6 SSE 6 11 3 6 - - 0.0
09/03:00pm 8.6 5.3 2.6 66 2.7 ESE 9 15 5 8 - - 0.0
09/02:30pm 8.6 6.1 4.0 73 2.1 SE 6 11 3 6 - - 0.0
09/02:00pm 8.6 5.0 3.0 68 2.5 SE 11 22 6 12 - - 0.0
09/01:30pm 8.9 6.2 3.7 70 2.4 SE 7 15 4 8 - - 0.0
09/01:00pm 8.6 5.4 3.2 69 2.5 SE 9 17 5 9 - - 0.0
09/12:30pm 8.5 5.5 3.9 73 2.1 ESE 9 15 5 8 - - 0.0
09/12:00pm 7.8 4.3 3.5 74 2.0 SE 11 19 6 10 - - 0.0
09/11:30am 7.3 4.3 3.9 79 1.6 SE 9 17 5 9 - - 0.0
09/11:00am 6.8 3.7 3.6 80 1.4 SSE 9 24 5 13 - - 0.0
09/10:30am 6.8 3.7 3.8 81 1.4 SSE 9 28 5 15 - - 0.0
09/10:00am 6.5 3.4 3.7 82 1.3 SSE 9 20 5 11 - - 0.0
09/09:30am 6.2 3.1 3.4 82 1.3 SSE 9 20 5 11 - - 0.0
09/09:00am 5.9 2.3 3.1 82 1.2 SSE 11 26 6 14 - - 2.2
09/08:30am 5.6 2.3 2.6 81 1.3 SSE 9 20 5 11 - - 2.2

Other formats

Comma delimited format used in spreadsheet applications
http://www.bom.gov.au/fwo/IDV60801/IDV60801.94878.axf

JavaScript Object Notation format (JSON) in row-major order
http://www.bom.gov.au/fwo/IDV60801/IDV60801.94878.json

Data quality

Most of these data are generated automatically and are frequently updated. Quality checks on data are not normally performed. It is possible for incorrect values to appear. Refer to information at About Latest Weather Observations and please check the disclaimer before using these data.